sensor_id;sensor_type;location;lat;lon;timestamp;pressure;altitude;pressure_sealevel;temperature;humidity
80945;BME280;70400;50.934;11.590;2023-11-21T00:00:12;99497.91;;;6.55;93.78
80945;BME280;70400;50.934;11.590;2023-11-21T00:01:04;99494.56;;;6.53;93.73
80945;BME280;70400;50.934;11.590;2023-11-21T00:01:55;99495.38;;;6.44;94.32
80945;BME280;70400;50.934;11.590;2023-11-21T00:02:47;99492.59;;;6.45;94.35
80945;BME280;70400;50.934;11.590;2023-11-21T00:03:38;99497.28;;;6.42;94.36
80945;BME280;70400;50.934;11.590;2023-11-21T00:04:30;99497.28;;;6.42;94.73
80945;BME280;70400;50.934;11.590;2023-11-21T00:05:21;99494.66;;;6.42;94.86
80945;BME280;70400;50.934;11.590;2023-11-21T00:06:13;99491.53;;;6.48;94.55
80945;BME280;70400;50.934;11.590;2023-11-21T00:07:05;99489.34;;;6.53;94.39
80945;BME280;70400;50.934;11.590;2023-11-21T00:07:56;99495.84;;;6.59;94.23
80945;BME280;70400;50.934;11.590;2023-11-21T00:08:48;99498.47;;;6.59;93.98
80945;BME280;70400;50.934;11.590;2023-11-21T00:09:38;99498.47;;;6.59;94.38
80945;BME280;70400;50.934;11.590;2023-11-21T00:10:29;99497.34;;;6.51;93.89
80945;BME280;70400;50.934;11.590;2023-11-21T00:11:20;99497.59;;;6.48;94.17
80945;BME280;70400;50.934;11.590;2023-11-21T00:12:11;99493.19;;;6.49;94.03
80945;BME280;70400;50.934;11.590;2023-11-21T00:13:04;99495.81;;;6.49;94.15
80945;BME280;70400;50.934;11.590;2023-11-21T00:13:55;99499.81;;;6.53;94.28
80945;BME280;70400;50.934;11.590;2023-11-21T00:14:46;99500.78;;;6.52;94.00
80945;BME280;70400;50.934;11.590;2023-11-21T00:15:37;99501.50;;;6.54;94.23
80945;BME280;70400;50.934;11.590;2023-11-21T00:16:28;99497.19;;;6.53;94.03
80945;BME280;70400;50.934;11.590;2023-11-21T00:17:18;99498.88;;;6.54;94.28
80945;BME280;70400;50.934;11.590;2023-11-21T00:18:09;99496.09;;;6.56;94.05
80945;BME280;70400;50.934;11.590;2023-11-21T00:19:01;99502.19;;;6.56;94.22
80945;BME280;70400;50.934;11.590;2023-11-21T00:19:51;99501.22;;;6.57;94.19
80945;BME280;70400;50.934;11.590;2023-11-21T00:20:45;99494.75;;;6.61;94.20
80945;BME280;70400;50.934;11.590;2023-11-21T00:21:36;99499.88;;;6.63;94.36
80945;BME280;70400;50.934;11.590;2023-11-21T00:22:27;99499.16;;;6.61;93.99
80945;BME280;70400;50.934;11.590;2023-11-21T00:23:18;99499.59;;;6.66;94.02
80945;BME280;70400;50.934;11.590;2023-11-21T00:24:09;99497.81;;;6.66;94.05
80945;BME280;70400;50.934;11.590;2023-11-21T00:24:59;99497.31;;;6.72;93.93
80945;BME280;70400;50.934;11.590;2023-11-21T00:25:50;99500.88;;;6.71;93.52
80945;BME280;70400;50.934;11.590;2023-11-21T00:26:43;99501.13;;;6.68;93.94
80945;BME280;70400;50.934;11.590;2023-11-21T00:27:35;99501.84;;;6.70;93.62
80945;BME280;70400;50.934;11.590;2023-11-21T00:28:26;99504.91;;;6.76;93.72
80945;BME280;70400;50.934;11.590;2023-11-21T00:29:17;99502.28;;;6.76;94.32
80945;BME280;70400;50.934;11.590;2023-11-21T00:30:09;99503.50;;;6.71;94.50
80945;BME280;70400;50.934;11.590;2023-11-21T00:31:00;99504.47;;;6.70;94.27
80945;BME280;70400;50.934;11.590;2023-11-21T00:31:51;99496.72;;;6.69;94.52
80945;BME280;70400;50.934;11.590;2023-11-21T00:32:42;99501.06;;;6.80;94.32
80945;BME280;70400;50.934;11.590;2023-11-21T00:33:34;99502.72;;;6.81;93.94
80945;BME280;70400;50.934;11.590;2023-11-21T00:34:24;99501.75;;;6.82;93.70
80945;BME280;70400;50.934;11.590;2023-11-21T00:35:15;99494.97;;;6.79;93.68
80945;BME280;70400;50.934;11.590;2023-11-21T00:36:07;99498.31;;;6.81;93.59
80945;BME280;70400;50.934;11.590;2023-11-21T00:37:00;99495.56;;;6.83;93.42
80945;BME280;70400;50.934;11.590;2023-11-21T00:37:51;99496.06;;;6.77;93.84
80945;BME280;70400;50.934;11.590;2023-11-21T00:38:43;99502.28;;;6.76;93.91
80945;BME280;70400;50.934;11.590;2023-11-21T00:39:34;99503.25;;;6.74;94.07
80945;BME280;70400;50.934;11.590;2023-11-21T00:40:26;99495.78;;;6.70;93.76
80945;BME280;70400;50.934;11.590;2023-11-21T00:41:16;99498.84;;;6.75;93.93
80945;BME280;70400;50.934;11.590;2023-11-21T00:42:07;99497.88;;;6.76;93.99
80945;BME280;70400;50.934;11.590;2023-11-21T00:42:59;99500.38;;;6.78;93.90
80945;BME280;70400;50.934;11.590;2023-11-21T00:43:51;99501.31;;;6.77;94.04
80945;BME280;70400;50.934;11.590;2023-11-21T00:44:42;99500.50;;;6.76;94.01
80945;BME280;70400;50.934;11.590;2023-11-21T00:45:33;99504.38;;;6.82;93.82
80945;BME280;70400;50.934;11.590;2023-11-21T00:46:24;99494.75;;;6.82;94.15
80945;BME280;70400;50.934;11.590;2023-11-21T00:47:17;99492.56;;;6.87;94.04
80945;BME280;70400;50.934;11.590;2023-11-21T00:48:08;99501.50;;;6.85;93.38
80945;BME280;70400;50.934;11.590;2023-11-21T00:48:59;99495.41;;;6.84;93.27
80945;BME280;70400;50.934;11.590;2023-11-21T00:49:50;99497.91;;;6.86;93.69
80945;BME280;70400;50.934;11.590;2023-11-21T00:50:41;99500.41;;;6.87;93.36
80945;BME280;70400;50.934;11.590;2023-11-21T00:51:32;99497.09;;;6.85;93.67
80945;BME280;70400;50.934;11.590;2023-11-21T00:52:23;99498.47;;;6.80;93.56
80945;BME280;70400;50.934;11.590;2023-11-21T00:53:15;99500.94;;;6.81;94.38
80945;BME280;70400;50.934;11.590;2023-11-21T00:54:06;99504.63;;;6.79;93.75
80945;BME280;70400;50.934;11.590;2023-11-21T00:54:57;99495.69;;;6.81;93.93
80945;BME280;70400;50.934;11.590;2023-11-21T00:55:50;99499.44;;;6.88;94.02
80945;BME280;70400;50.934;11.590;2023-11-21T00:56:45;99506.88;;;6.83;93.82
80945;BME280;70400;50.934;11.590;2023-11-21T00:57:37;99502.84;;;6.79;93.67
80945;BME280;70400;50.934;11.590;2023-11-21T00:58:28;99511.56;;;6.80;94.49
80945;BME280;70400;50.934;11.590;2023-11-21T00:59:22;99503.69;;;6.80;94.06
80945;BME280;70400;50.934;11.590;2023-11-21T01:00:14;99503.69;;;6.80;93.96
80945;BME280;70400;50.934;11.590;2023-11-21T01:01:07;99511.56;;;6.80;94.04
80945;BME280;70400;50.934;11.590;2023-11-21T01:01:59;99508.09;;;6.79;93.90
80945;BME280;70400;50.934;11.590;2023-11-21T01:02:52;99505.34;;;6.81;94.13
80945;BME280;70400;50.934;11.590;2023-11-21T01:03:43;99504.97;;;6.85;93.82
80945;BME280;70400;50.934;11.590;2023-11-21T01:04:34;99512.16;;;6.93;93.72
80945;BME280;70400;50.934;11.590;2023-11-21T01:05:25;99510.81;;;6.99;93.72
80945;BME280;70400;50.934;11.590;2023-11-21T01:06:16;99513.16;;;7.02;93.14
80945;BME280;70400;50.934;11.590;2023-11-21T01:07:07;99508.00;;;6.90;93.15
80945;BME280;70400;50.934;11.590;2023-11-21T01:07:59;99511.03;;;6.86;93.01
80945;BME280;70400;50.934;11.590;2023-11-21T01:08:50;99510.03;;;6.87;93.40
80945;BME280;70400;50.934;11.590;2023-11-21T01:09:41;99516.00;;;6.89;93.51
80945;BME280;70400;50.934;11.590;2023-11-21T01:10:34;99515.16;;;6.88;93.20
80945;BME280;70400;50.934;11.590;2023-11-21T01:11:25;99519.59;;;6.88;93.36
80945;BME280;70400;50.934;11.590;2023-11-21T01:12:17;99521.38;;;6.87;93.19
80945;BME280;70400;50.934;11.590;2023-11-21T01:13:08;99519.44;;;6.89;93.26
80945;BME280;70400;50.934;11.590;2023-11-21T01:13:59;99521.13;;;6.90;93.31
80945;BME280;70400;50.934;11.590;2023-11-21T01:14:50;99524.19;;;6.95;92.81
80945;BME280;70400;50.934;11.590;2023-11-21T01:15:42;99523.19;;;6.96;92.86
80945;BME280;70400;50.934;11.590;2023-11-21T01:16:32;99525.00;;;6.96;92.70
80945;BME280;70400;50.934;11.590;2023-11-21T01:17:25;99522.50;;;6.94;92.62
80945;BME280;70400;50.934;11.590;2023-11-21T01:18:17;99520.97;;;6.92;93.22
80945;BME280;70400;50.934;11.590;2023-11-21T01:19:07;99520.28;;;6.90;92.84
80945;BME280;70400;50.934;11.590;2023-11-21T01:20:01;99529.81;;;6.91;92.99
80945;BME280;70400;50.934;11.590;2023-11-21T01:20:52;99531.72;;;6.89;92.83
80945;BME280;70400;50.934;11.590;2023-11-21T01:21:44;99528.41;;;6.87;93.16
80945;BME280;70400;50.934;11.590;2023-11-21T01:22:35;99526.75;;;6.86;93.28
80945;BME280;70400;50.934;11.590;2023-11-21T01:23:26;99534.72;;;6.84;93.36
80945;BME280;70400;50.934;11.590;2023-11-21T01:24:20;99523.75;;;6.90;93.13
80945;BME280;70400;50.934;11.590;2023-11-21T01:25:10;99526.75;;;6.86;93.02
80945;BME280;70400;50.934;11.590;2023-11-21T01:26:02;99530.78;;;6.90;93.26
80945;BME280;70400;50.934;11.590;2023-11-21T01:26:53;99525.94;;;6.85;93.31
80945;BME280;70400;50.934;11.590;2023-11-21T01:27:44;99528.66;;;6.84;93.58
80945;BME280;70400;50.934;11.590;2023-11-21T01:28:35;99533.63;;;6.87;93.52
80945;BME280;70400;50.934;11.590;2023-11-21T01:29:26;99529.25;;;6.87;93.37
80945;BME280;70400;50.934;11.590;2023-11-21T01:30:19;99525.78;;;6.87;93.49
80945;BME280;70400;50.934;11.590;2023-11-21T01:31:10;99532.69;;;6.88;93.64
80945;BME280;70400;50.934;11.590;2023-11-21T01:32:02;99526.09;;;6.93;93.38
80945;BME280;70400;50.934;11.590;2023-11-21T01:32:54;99522.66;;;6.93;93.55
80945;BME280;70400;50.934;11.590;2023-11-21T01:33:45;99524.44;;;6.92;93.61
80945;BME280;70400;50.934;11.590;2023-11-21T01:34:37;99528.16;;;6.90;93.77
80945;BME280;70400;50.934;11.590;2023-11-21T01:35:27;99523.75;;;6.90;94.03
80945;BME280;70400;50.934;11.590;2023-11-21T01:36:18;99532.53;;;6.89;94.04
80945;BME280;70400;50.934;11.590;2023-11-21T01:37:09;99530.91;;;6.88;94.22
80945;BME280;70400;50.934;11.590;2023-11-21T01:38:03;99527.19;;;6.91;94.34
80945;BME280;70400;50.934;11.590;2023-11-21T01:38:54;99518.78;;;6.97;94.05
80945;BME280;70400;50.934;11.590;2023-11-21T01:39:45;99531.66;;;7.00;93.95
80945;BME280;70400;50.934;11.590;2023-11-21T01:40:38;99528.06;;;7.01;93.31
80945;BME280;70400;50.934;11.590;2023-11-21T01:41:29;99533.88;;;7.05;93.58
80945;BME280;70400;50.934;11.590;2023-11-21T01:42:21;99529.03;;;7.00;93.12
80945;BME280;70400;50.934;11.590;2023-11-21T01:43:12;99527.34;;;6.99;93.56
80945;BME280;70400;50.934;11.590;2023-11-21T01:44:03;99525.31;;;7.03;93.29
80945;BME280;70400;50.934;11.590;2023-11-21T01:44:58;99533.69;;;6.96;93.62
80945;BME280;70400;50.934;11.590;2023-11-21T01:45:52;99532.16;;;6.94;94.04
80945;BME280;70400;50.934;11.590;2023-11-21T01:46:44;99529.25;;;6.87;94.04
80945;BME280;70400;50.934;11.590;2023-11-21T01:47:36;99532.38;;;6.81;94.22
80945;BME280;70400;50.934;11.590;2023-11-21T01:48:27;99533.09;;;6.83;94.29
80945;BME280;70400;50.934;11.590;2023-11-21T01:49:19;99531.00;;;6.87;94.28
80945;BME280;70400;50.934;11.590;2023-11-21T01:50:15;99538.19;;;6.85;94.61
80945;BME280;70400;50.934;11.590;2023-11-21T01:51:06;99542.22;;;6.89;94.58
80945;BME280;70400;50.934;11.590;2023-11-21T01:51:58;99537.78;;;6.89;94.89
80945;BME280;70400;50.934;11.590;2023-11-21T01:52:49;99541.66;;;6.85;94.44
80945;BME280;70400;50.934;11.590;2023-11-21T01:53:40;99538.59;;;6.80;94.63
80945;BME280;70400;50.934;11.590;2023-11-21T01:54:31;99545.47;;;6.81;94.98
80945;BME280;70400;50.934;11.590;2023-11-21T01:55:22;99542.59;;;6.84;94.70
80945;BME280;70400;50.934;11.590;2023-11-21T01:56:19;99543.56;;;6.83;94.71
80945;BME280;70400;50.934;11.590;2023-11-21T01:57:10;99550.22;;;6.87;94.80
80945;BME280;70400;50.934;11.590;2023-11-21T01:58:01;99547.59;;;6.87;94.64
80945;BME280;70400;50.934;11.590;2023-11-21T01:58:52;99546.06;;;6.85;94.29
80945;BME280;70400;50.934;11.590;2023-11-21T01:59:44;99544.28;;;6.85;94.02
80945;BME280;70400;50.934;11.590;2023-11-21T02:00:36;99539.03;;;6.85;94.17
80945;BME280;70400;50.934;11.590;2023-11-21T02:01:29;99540.41;;;6.89;94.16
80945;BME280;70400;50.934;11.590;2023-11-21T02:02:20;99547.19;;;6.92;94.15
80945;BME280;70400;50.934;11.590;2023-11-21T02:03:11;99547.50;;;6.99;93.76
80945;BME280;70400;50.934;11.590;2023-11-21T02:04:03;99541.81;;;6.93;93.48
80945;BME280;70400;50.934;11.590;2023-11-21T02:04:54;99541.81;;;6.93;93.39
80945;BME280;70400;50.934;11.590;2023-11-21T02:05:45;99546.34;;;6.91;93.33
80945;BME280;70400;50.934;11.590;2023-11-21T02:06:36;99546.78;;;6.96;93.24
80945;BME280;70400;50.934;11.590;2023-11-21T02:07:27;99542.38;;;6.97;93.07
80945;BME280;70400;50.934;11.590;2023-11-21T02:08:18;99544.06;;;6.98;92.98
80945;BME280;70400;50.934;11.590;2023-11-21T02:09:10;99550.44;;;7.05;93.09
80945;BME280;70400;50.934;11.590;2023-11-21T02:10:02;99550.88;;;7.10;92.71
80945;BME280;70400;50.934;11.590;2023-11-21T02:10:53;99552.34;;;7.03;92.74
80945;BME280;70400;50.934;11.590;2023-11-21T02:11:44;99550.81;;;7.01;92.63
80945;BME280;70400;50.934;11.590;2023-11-21T02:12:35;99549.03;;;7.01;92.38
80945;BME280;70400;50.934;11.590;2023-11-21T02:13:26;99545.69;;;6.99;92.77
80945;BME280;70400;50.934;11.590;2023-11-21T02:14:17;99551.22;;;6.96;92.70
80945;BME280;70400;50.934;11.590;2023-11-21T02:15:13;99550.81;;;7.01;92.75
80945;BME280;70400;50.934;11.590;2023-11-21T02:16:17;99547.28;;;7.11;92.76
80945;BME280;70400;50.934;11.590;2023-11-21T02:17:08;99543.56;;;7.14;92.54
80945;BME280;70400;50.934;11.590;2023-11-21T02:17:59;99542.34;;;7.18;92.41
80945;BME280;70400;50.934;11.590;2023-11-21T02:18:52;99548.25;;;7.10;91.86
80945;BME280;70400;50.934;11.590;2023-11-21T02:19:43;99551.59;;;7.12;92.20
80945;BME280;70400;50.934;11.590;2023-11-21T02:20:33;99544.53;;;7.13;91.89
80945;BME280;70400;50.934;11.590;2023-11-21T02:21:27;99544.53;;;7.13;91.98
80945;BME280;70400;50.934;11.590;2023-11-21T02:22:19;99541.22;;;7.11;92.20
80945;BME280;70400;50.934;11.590;2023-11-21T02:23:10;99546.06;;;7.15;92.16
80945;BME280;70400;50.934;11.590;2023-11-21T02:24:03;99538.75;;;7.19;91.64
80945;BME280;70400;50.934;11.590;2023-11-21T02:24:55;99543.44;;;7.15;91.96
80945;BME280;70400;50.934;11.590;2023-11-21T02:25:46;99550.34;;;7.16;91.63
80945;BME280;70400;50.934;11.590;2023-11-21T02:26:39;99551.25;;;7.06;91.70
80945;BME280;70400;50.934;11.590;2023-11-21T02:27:30;99540.34;;;7.01;92.12
80945;BME280;70400;50.934;11.590;2023-11-21T02:28:20;99548.63;;;7.06;92.20
80945;BME280;70400;50.934;11.590;2023-11-21T02:29:20;99547.13;;;7.03;92.20
80945;BME280;70400;50.934;11.590;2023-11-21T02:30:18;99553.84;;;6.96;92.22
80945;BME280;70400;50.934;11.590;2023-11-21T02:31:09;99547.50;;;6.99;92.56
80945;BME280;70400;50.934;11.590;2023-11-21T02:32:00;99545.25;;;6.94;92.01
80945;BME280;70400;50.934;11.590;2023-11-21T02:32:51;99549.81;;;6.92;92.08
80945;BME280;70400;50.934;11.590;2023-11-21T02:33:48;99549.81;;;6.92;92.62
80945;BME280;70400;50.934;11.590;2023-11-21T02:34:39;99551.22;;;6.96;92.66
80945;BME280;70400;50.934;11.590;2023-11-21T02:35:30;99556.00;;;6.91;92.79
80945;BME280;70400;50.934;11.590;2023-11-21T02:36:22;99556.56;;;6.94;92.85
80945;BME280;70400;50.934;11.590;2023-11-21T02:37:14;99551.75;;;6.90;93.14
80945;BME280;70400;50.934;11.590;2023-11-21T02:38:05;99550.50;;;6.94;93.00
80945;BME280;70400;50.934;11.590;2023-11-21T02:38:57;99553.84;;;6.96;92.77
80945;BME280;70400;50.934;11.590;2023-11-21T02:39:47;99553.44;;;7.01;92.76
80945;BME280;70400;50.934;11.590;2023-11-21T02:40:38;99545.69;;;6.99;92.60
80945;BME280;70400;50.934;11.590;2023-11-21T02:41:29;99551.91;;;6.98;92.42
80945;BME280;70400;50.934;11.590;2023-11-21T02:42:20;99548.84;;;6.93;92.46
80945;BME280;70400;50.934;11.590;2023-11-21T02:43:11;99545.59;;;7.01;92.41
80945;BME280;70400;50.934;11.590;2023-11-21T02:44:02;99552.63;;;7.00;92.26
80945;BME280;70400;50.934;11.590;2023-11-21T02:44:55;99552.31;;;6.93;92.33
80945;BME280;70400;50.934;11.590;2023-11-21T02:45:47;99549.69;;;6.93;92.70
80945;BME280;70400;50.934;11.590;2023-11-21T02:46:38;99551.34;;;6.94;92.89
80945;BME280;70400;50.934;11.590;2023-11-21T02:47:31;99548.03;;;6.92;92.85
80945;BME280;70400;50.934;11.590;2023-11-21T02:48:22;99554.09;;;6.93;92.72
80945;BME280;70400;50.934;11.590;2023-11-21T02:49:14;99549.69;;;6.93;92.91
80945;BME280;70400;50.934;11.590;2023-11-21T02:50:06;99551.09;;;6.98;92.91
80945;BME280;70400;50.934;11.590;2023-11-21T02:50:59;99552.41;;;6.92;92.66
80945;BME280;70400;50.934;11.590;2023-11-21T02:51:50;99549.81;;;6.92;92.73
80945;BME280;70400;50.934;11.590;2023-11-21T02:52:41;99542.66;;;6.94;93.02
80945;BME280;70400;50.934;11.590;2023-11-21T02:53:31;99543.63;;;6.93;92.73
80945;BME280;70400;50.934;11.590;2023-11-21T02:54:23;99548.03;;;6.92;92.96
80945;BME280;70400;50.934;11.590;2023-11-21T02:55:13;99547.88;;;6.94;93.19
80945;BME280;70400;50.934;11.590;2023-11-21T02:56:05;99548.47;;;6.98;93.08
80945;BME280;70400;50.934;11.590;2023-11-21T02:56:56;99538.69;;;7.00;92.89
80945;BME280;70400;50.934;11.590;2023-11-21T02:57:47;99538.09;;;6.96;92.86
80945;BME280;70400;50.934;11.590;2023-11-21T02:58:41;99540.03;;;6.94;93.06
80945;BME280;70400;50.934;11.590;2023-11-21T02:59:34;99536.91;;;7.00;92.95
80945;BME280;70400;50.934;11.590;2023-11-21T03:00:25;99536.91;;;7.00;92.89
80945;BME280;70400;50.934;11.590;2023-11-21T03:01:16;99534.97;;;7.02;92.70
80945;BME280;70400;50.934;11.590;2023-11-21T03:02:07;99535.38;;;6.98;92.46
80945;BME280;70400;50.934;11.590;2023-11-21T03:03:01;99541.69;;;6.95;92.59
80945;BME280;70400;50.934;11.590;2023-11-21T03:03:52;99544.88;;;6.99;92.79
80945;BME280;70400;50.934;11.590;2023-11-21T03:04:43;99546.78;;;6.96;92.74
80945;BME280;70400;50.934;11.590;2023-11-21T03:05:34;99535.91;;;7.01;92.86
80945;BME280;70400;50.934;11.590;2023-11-21T03:06:26;99540.34;;;7.01;92.63
80945;BME280;70400;50.934;11.590;2023-11-21T03:07:17;99531.66;;;7.00;92.73
80945;BME280;70400;50.934;11.590;2023-11-21T03:08:10;99541.59;;;7.06;92.72
80945;BME280;70400;50.934;11.590;2023-11-21T03:09:03;99540.22;;;7.02;92.89
80945;BME280;70400;50.934;11.590;2023-11-21T03:09:55;99539.38;;;7.02;92.63
80945;BME280;70400;50.934;11.590;2023-11-21T03:10:45;99548.31;;;6.99;92.89
80945;BME280;70400;50.934;11.590;2023-11-21T03:11:36;99542.25;;;6.99;92.87
80945;BME280;70400;50.934;11.590;2023-11-21T03:12:29;99544.88;;;6.99;92.90
80945;BME280;70400;50.934;11.590;2023-11-21T03:13:20;99544.19;;;6.96;93.02
80945;BME280;70400;50.934;11.590;2023-11-21T03:14:10;99543.34;;;6.96;92.85
80945;BME280;70400;50.934;11.590;2023-11-21T03:15:02;99551.16;;;7.07;92.55
80945;BME280;70400;50.934;11.590;2023-11-21T03:15:53;99545.09;;;7.16;92.13
80945;BME280;70400;50.934;11.590;2023-11-21T03:16:45;99552.91;;;7.07;92.29
80945;BME280;70400;50.934;11.590;2023-11-21T03:17:36;99551.16;;;7.17;92.52
80945;BME280;70400;50.934;11.590;2023-11-21T03:18:28;99551.16;;;7.17;91.99
80945;BME280;70400;50.934;11.590;2023-11-21T03:19:20;99546.78;;;7.17;91.75
80945;BME280;70400;50.934;11.590;2023-11-21T03:20:11;99545.63;;;7.10;92.14
80945;BME280;70400;50.934;11.590;2023-11-21T03:21:06;99554.72;;;7.06;91.81
80945;BME280;70400;50.934;11.590;2023-11-21T03:21:59;99555.81;;;7.04;92.31
80945;BME280;70400;50.934;11.590;2023-11-21T03:22:49;99556.78;;;7.03;92.06
80945;BME280;70400;50.934;11.590;2023-11-21T03:23:40;99553.06;;;7.05;92.16
80945;BME280;70400;50.934;11.590;2023-11-21T03:24:31;99556.63;;;7.04;92.12
80945;BME280;70400;50.934;11.590;2023-11-21T03:25:23;99558.56;;;7.02;92.24
80945;BME280;70400;50.934;11.590;2023-11-21T03:26:14;99554.66;;;6.96;92.05
80945;BME280;70400;50.934;11.590;2023-11-21T03:27:05;99556.91;;;7.01;92.83
80945;BME280;70400;50.934;11.590;2023-11-21T03:27:56;99556.06;;;7.01;92.54
80945;BME280;70400;50.934;11.590;2023-11-21T03:28:47;99550.56;;;7.04;92.33
80945;BME280;70400;50.934;11.590;2023-11-21T03:29:38;99557.34;;;7.06;92.47
80945;BME280;70400;50.934;11.590;2023-11-21T03:30:30;99558.56;;;7.02;92.65
80945;BME280;70400;50.934;11.590;2023-11-21T03:31:21;99553.50;;;7.10;92.51
80945;BME280;70400;50.934;11.590;2023-11-21T03:32:13;99552.78;;;7.08;92.00
80945;BME280;70400;50.934;11.590;2023-11-21T03:33:03;99560.34;;;7.02;92.29
80945;BME280;70400;50.934;11.590;2023-11-21T03:33:54;99560.72;;;6.97;92.04
80945;BME280;70400;50.934;11.590;2023-11-21T03:34:58;99555.19;;;6.90;92.71
80945;BME280;70400;50.934;11.590;2023-11-21T03:35:50;99563.88;;;6.91;92.58
80945;BME280;70400;50.934;11.590;2023-11-21T03:36:43;99566.19;;;6.84;92.84
80945;BME280;70400;50.934;11.590;2023-11-21T03:37:34;99565.34;;;6.84;92.85
80945;BME280;70400;50.934;11.590;2023-11-21T03:38:25;99568.56;;;6.87;92.98
80945;BME280;70400;50.934;11.590;2023-11-21T03:39:16;99563.44;;;6.86;92.91
80945;BME280;70400;50.934;11.590;2023-11-21T03:40:07;99570.91;;;6.90;92.77
80945;BME280;70400;50.934;11.590;2023-11-21T03:41:03;99564.41;;;6.85;93.02
80945;BME280;70400;50.934;11.590;2023-11-21T03:41:55;99565.06;;;6.77;93.20
80945;BME280;70400;50.934;11.590;2023-11-21T03:42:45;99569.06;;;6.81;93.19
80945;BME280;70400;50.934;11.590;2023-11-21T03:43:37;99566.59;;;6.80;93.41
80945;BME280;70400;50.934;11.590;2023-11-21T03:44:28;99571.69;;;6.81;93.56
80945;BME280;70400;50.934;11.590;2023-11-21T03:45:19;99567.69;;;6.77;93.51
80945;BME280;70400;50.934;11.590;2023-11-21T03:46:10;99567.69;;;6.77;93.70
80945;BME280;70400;50.934;11.590;2023-11-21T03:47:02;99566.00;;;6.76;93.31
80945;BME280;70400;50.934;11.590;2023-11-21T03:47:53;99571.63;;;6.71;93.45
80945;BME280;70400;50.934;11.590;2023-11-21T03:48:44;99574.88;;;6.64;93.68
80945;BME280;70400;50.934;11.590;2023-11-21T03:49:35;99572.03;;;6.67;93.88
80945;BME280;70400;50.934;11.590;2023-11-21T03:50:26;99570.50;;;6.64;93.49
80945;BME280;70400;50.934;11.590;2023-11-21T03:51:18;99566.66;;;6.68;93.91
80945;BME280;70400;50.934;11.590;2023-11-21T03:52:09;99572.69;;;6.59;93.61
80945;BME280;70400;50.934;11.590;2023-11-21T03:53:00;99578.16;;;6.56;93.69
80945;BME280;70400;50.934;11.590;2023-11-21T03:53:53;99576.59;;;6.53;93.94
80945;BME280;70400;50.934;11.590;2023-11-21T03:54:44;99572.88;;;6.46;93.94
80945;BME280;70400;50.934;11.590;2023-11-21T03:55:35;99573.31;;;6.51;94.28
80945;BME280;70400;50.934;11.590;2023-11-21T03:56:27;99581.16;;;6.51;94.15
80945;BME280;70400;50.934;11.590;2023-11-21T03:57:17;99582.56;;;6.56;94.31
80945;BME280;70400;50.934;11.590;2023-11-21T03:58:08;99576.41;;;6.66;94.34
80945;BME280;70400;50.934;11.590;2023-11-21T03:58:59;99574.25;;;6.71;94.02
80945;BME280;70400;50.934;11.590;2023-11-21T03:59:50;99575.22;;;6.70;93.88
80945;BME280;70400;50.934;11.590;2023-11-21T04:00:41;99576.31;;;6.68;94.19
80945;BME280;70400;50.934;11.590;2023-11-21T04:01:32;99576.69;;;6.63;94.06
80945;BME280;70400;50.934;11.590;2023-11-21T04:02:23;99577.06;;;6.59;93.97
80945;BME280;70400;50.934;11.590;2023-11-21T04:03:16;99576.41;;;6.45;94.54
80945;BME280;70400;50.934;11.590;2023-11-21T04:04:08;99576.78;;;6.41;94.72
80945;BME280;70400;50.934;11.590;2023-11-21T04:04:59;99582.56;;;6.35;94.39
80945;BME280;70400;50.934;11.590;2023-11-21T04:05:50;99584.47;;;6.33;95.10
80945;BME280;70400;50.934;11.590;2023-11-21T04:06:41;99580.56;;;6.27;95.16
80945;BME280;70400;50.934;11.590;2023-11-21T04:07:32;99578.56;;;6.19;95.31
80945;BME280;70400;50.934;11.590;2023-11-21T04:08:23;99585.59;;;6.19;95.74
80945;BME280;70400;50.934;11.590;2023-11-21T04:09:16;99578.00;;;6.16;95.82
80945;BME280;70400;50.934;11.590;2023-11-21T04:10:09;99575.97;;;6.08;95.77
80945;BME280;70400;50.934;11.590;2023-11-21T04:11:03;99582.53;;;6.02;95.74
80945;BME280;70400;50.934;11.590;2023-11-21T04:11:55;99583.25;;;6.04;95.92
80945;BME280;70400;50.934;11.590;2023-11-21T04:12:46;99579.56;;;6.07;96.67
80945;BME280;70400;50.934;11.590;2023-11-21T04:13:38;99578.59;;;6.08;96.45
80945;BME280;70400;50.934;11.590;2023-11-21T04:14:29;99578.47;;;6.09;96.46
80945;BME280;70400;50.934;11.590;2023-11-21T04:15:20;99582.28;;;6.05;96.21
80945;BME280;70400;50.934;11.590;2023-11-21T04:16:11;99581.00;;;6.00;96.54
80945;BME280;70400;50.934;11.590;2023-11-21T04:17:02;99582.09;;;5.97;96.40
80945;BME280;70400;50.934;11.590;2023-11-21T04:17:54;99587.78;;;6.02;96.73
80945;BME280;70400;50.934;11.590;2023-11-21T04:18:47;99584.22;;;5.92;96.83
80945;BME280;70400;50.934;11.590;2023-11-21T04:19:38;99581.97;;;5.87;96.38
80945;BME280;70400;50.934;11.590;2023-11-21T04:20:29;99593.38;;;5.86;96.42
80945;BME280;70400;50.934;11.590;2023-11-21T04:21:20;99592.44;;;5.87;96.55
80945;BME280;70400;50.934;11.590;2023-11-21T04:22:11;99588.03;;;5.88;96.53
80945;BME280;70400;50.934;11.590;2023-11-21T04:23:01;99588.88;;;5.88;96.55
80945;BME280;70400;50.934;11.590;2023-11-21T04:23:53;99592.56;;;5.86;96.09
80945;BME280;70400;50.934;11.590;2023-11-21T04:24:44;99593.03;;;5.80;96.33
80945;BME280;70400;50.934;11.590;2023-11-21T04:25:35;99588.88;;;5.88;96.44
80945;BME280;70400;50.934;11.590;2023-11-21T04:26:26;99591.84;;;5.95;96.58
80945;BME280;70400;50.934;11.590;2023-11-21T04:27:17;99586.00;;;6.03;96.25
80945;BME280;70400;50.934;11.590;2023-11-21T04:28:08;99596.47;;;5.92;95.84
80945;BME280;70400;50.934;11.590;2023-11-21T04:28:59;99594.69;;;5.92;96.29
80945;BME280;70400;50.934;11.590;2023-11-21T04:29:50;99595.16;;;5.97;96.23
80945;BME280;70400;50.934;11.590;2023-11-21T04:30:41;99596.97;;;5.85;96.01
80945;BME280;70400;50.934;11.590;2023-11-21T04:31:32;99594.81;;;5.79;96.24
80945;BME280;70400;50.934;11.590;2023-11-21T04:32:23;99593.75;;;5.82;96.12
80945;BME280;70400;50.934;11.590;2023-11-21T04:33:14;99599.22;;;5.79;96.26